Aviation Digital Data Service (ADDS)

Output produced by METARs form (1810 UTC 26 September 2021)
found at http://www.aviationweather.gov/metar/data/
 
Forecast for: UTDK (KOLUB , TJ)
Text: TAF UTDK 261800Z 2619/2704 03005MPS 6000 FEW040 SCT070
Forecast period: 1900 to 2100 UTC 26 September 2021
Forecast type: FROM: standard forecast or significant change
Winds: from the NNE (30 degrees) at 12 MPH (10 knots; 5.1 m/s)
Visibility: 4 miles (6 km)
Ceiling: at least 12,000 feet AGL
Clouds: few clouds at 4000 feet AGL
scattered clouds at 7000 feet AGL
Weather: no significant weather forecast for this period
Text: BECMG 2621/2623 21005MPS 3100 HZ
Forecast period: 2100 UTC 26 September 2021 to 0400 UTC 27 September 2021
Forecast type: BECOMING: Conditions expected to become as follows by 2300 UTC 26 September 2021
Winds: from the SSW (210 degrees) at 12 MPH (10 knots; 5.1 m/s)
Visibility: 1.93 miles (3.11 km)
Ceiling: at least 12,000 feet AGL
Clouds: few clouds at 4000 feet AGL
scattered clouds at 7000 feet AGL
Weather: HZ  (haze)
Text: TEMPO 2623/2704 23009G14MPS 1500 HZ
Forecast period: 2300 UTC 26 September 2021 to 0400 UTC 27 September 2021
Forecast type: TEMPORARY: The following changes expected for less than half the time period
Winds: from the SW (230 degrees) at 20 MPH (17 knots; 8.7 m/s)
gusting to 31 MPH (27 knots; 13.9 m/s)
Visibility: 0.93 miles (1.50 km)
Ceiling: unknown
Clouds: missing
Weather: HZ  (haze)